createdAt,value
2023-08-07T00:00:10.318Z,98658.63
2023-08-07T00:02:38.482Z,98659.47
2023-08-07T00:05:07.385Z,98662.84
2023-08-07T00:07:35.385Z,98657.00
2023-08-07T00:10:04.387Z,98662.88
2023-08-07T00:12:32.390Z,98665.44
2023-08-07T00:15:02.668Z,98663.00
2023-08-07T00:17:30.829Z,98652.16
2023-08-07T00:19:58.760Z,98664.72
2023-08-07T00:22:27.267Z,98673.03
2023-08-07T00:24:55.183Z,98671.28
2023-08-07T00:27:23.165Z,98657.91
2023-08-07T00:29:52.886Z,98681.34
2023-08-07T00:32:22.220Z,98674.66
2023-08-07T00:34:50.159Z,98676.31
2023-08-07T00:37:18.565Z,98678.00
2023-08-07T00:39:46.580Z,98680.44
2023-08-07T00:42:14.656Z,98686.28
2023-08-07T00:44:42.600Z,98686.25
2023-08-07T00:47:10.742Z,98675.47
2023-08-07T00:49:40.072Z,98697.16
2023-08-07T00:52:08.867Z,98704.69
2023-08-07T00:54:36.880Z,98698.75
2023-08-07T00:57:12.920Z,98698.69
2023-08-07T00:59:41.836Z,98693.63
2023-08-07T01:02:10.635Z,98696.91
2023-08-07T01:04:40.296Z,98696.03
2023-08-07T01:07:09.914Z,98693.50
2023-08-07T01:09:38.356Z,98699.38
2023-08-07T01:12:15.612Z,98700.22
2023-08-07T01:14:53.209Z,98701.06
2023-08-07T01:17:23.851Z,98701.88
2023-08-07T01:19:54.096Z,98698.47
2023-08-07T01:22:23.416Z,98696.84
2023-08-07T01:24:53.040Z,98701.91
2023-08-07T01:27:37.635Z,98700.25
2023-08-07T01:30:14.576Z,98687.72
2023-08-07T01:32:51.699Z,98695.31
2023-08-07T01:35:26.385Z,98705.34
2023-08-07T01:37:57.712Z,98709.53
2023-08-07T01:40:26.640Z,98710.38
2023-08-07T01:42:55.186Z,98716.28
2023-08-07T01:45:26.765Z,98720.53
2023-08-07T01:47:55.117Z,98722.22
2023-08-07T01:50:24.303Z,98723.06
2023-08-07T01:52:52.496Z,98711.44
2023-08-07T01:55:23.549Z,98717.38
2023-08-07T01:57:54.762Z,98715.81
2023-08-07T02:00:23.061Z,98722.53
2023-08-07T02:02:51.100Z,98713.19
2023-08-07T02:05:20.241Z,98720.75
2023-08-07T02:07:48.159Z,98715.81
2023-08-07T02:10:16.076Z,98715.88
2023-08-07T02:12:45.552Z,98712.56
2023-08-07T02:15:13.718Z,98726.06
2023-08-07T02:17:42.670Z,98721.06
2023-08-07T02:20:12.447Z,98719.38
2023-08-07T02:22:40.484Z,98715.25
2023-08-07T02:25:09.171Z,98737.88
2023-08-07T02:27:39.005Z,98732.84
2023-08-07T02:30:09.713Z,98731.16
2023-08-07T02:32:37.682Z,98733.69
2023-08-07T02:35:06.458Z,98728.66
2023-08-07T02:37:34.405Z,98724.44
2023-08-07T02:40:02.332Z,98721.91
2023-08-07T02:42:30.293Z,98716.00
2023-08-07T02:44:58.833Z,98722.72
2023-08-07T02:47:28.167Z,98725.25
2023-08-07T02:49:56.147Z,98717.69
2023-08-07T02:52:24.288Z,98719.34
2023-08-07T02:54:52.249Z,98727.66
2023-08-07T02:57:20.146Z,98719.25
2023-08-07T02:59:48.190Z,98731.00
2023-08-07T03:02:16.195Z,98735.22
2023-08-07T03:04:45.631Z,98725.13
2023-08-07T03:07:13.503Z,98731.00
2023-08-07T03:09:41.352Z,98734.38
2023-08-07T03:12:10.025Z,98731.03
2023-08-07T03:14:38.000Z,98735.25
2023-08-07T03:17:06.459Z,98741.97
2023-08-07T03:19:34.332Z,98730.19
2023-08-07T03:22:03.631Z,98734.34
2023-08-07T03:24:31.634Z,98728.44
2023-08-07T03:26:59.597Z,98734.31
2023-08-07T03:29:27.676Z,98734.31
2023-08-07T03:31:56.022Z,98738.50
2023-08-07T03:34:24.057Z,98735.13
2023-08-07T03:36:51.926Z,98737.69
2023-08-07T03:39:21.230Z,98737.69
2023-08-07T03:41:49.182Z,98740.25
2023-08-07T03:44:19.080Z,98743.63
2023-08-07T03:46:47.729Z,98735.22
2023-08-07T03:49:16.359Z,98741.13
2023-08-07T03:51:44.347Z,98747.81
2023-08-07T03:54:12.233Z,98751.22
2023-08-07T03:56:41.522Z,98755.47
2023-08-07T03:59:09.845Z,98751.31
2023-08-07T04:01:37.965Z,98754.66
2023-08-07T04:04:06.353Z,98747.91
2023-08-07T04:06:34.366Z,98741.25
2023-08-07T04:09:04.401Z,98749.63
2023-08-07T04:11:34.552Z,98749.66
2023-08-07T04:14:05.004Z,98753.88
2023-08-07T04:16:34.262Z,98753.91
2023-08-07T04:19:02.161Z,98752.16
2023-08-07T04:21:30.033Z,98755.50
2023-08-07T04:23:57.971Z,98752.06
2023-08-07T04:26:25.906Z,98739.44
2023-08-07T04:28:53.791Z,98747.81
2023-08-07T04:31:23.872Z,98742.75
2023-08-07T04:33:51.868Z,98739.34
2023-08-07T04:36:22.156Z,98740.16
2023-08-07T04:38:50.095Z,98756.13
2023-08-07T04:41:18.394Z,98745.25
2023-08-07T04:43:46.584Z,98740.22
2023-08-07T04:46:14.582Z,98742.72
2023-08-07T04:48:43.882Z,98746.97
2023-08-07T04:51:11.779Z,98748.56
2023-08-07T04:53:39.689Z,98751.84
2023-08-07T04:56:07.857Z,98756.84
2023-08-07T04:58:35.813Z,98754.25
2023-08-07T05:01:04.374Z,98750.78
2023-08-07T05:03:32.861Z,98759.03
2023-08-07T05:06:02.616Z,98760.69
2023-08-07T05:08:30.589Z,98758.16
2023-08-07T05:10:58.421Z,98764.00
2023-08-07T05:13:26.349Z,98759.78
2023-08-07T05:15:54.249Z,98761.34
2023-08-07T05:18:22.302Z,98761.34
2023-08-07T05:20:50.138Z,98763.16
2023-08-07T05:23:19.455Z,98753.94
2023-08-07T05:25:49.885Z,98765.69
2023-08-07T05:28:17.996Z,98769.03
2023-08-07T05:30:46.009Z,98769.09
2023-08-07T05:33:16.626Z,98770.88
2023-08-07T05:35:44.721Z,98772.59
2023-08-07T05:38:12.542Z,98778.50
2023-08-07T05:40:42.043Z,98781.09
2023-08-07T05:43:10.757Z,98785.25
2023-08-07T05:45:38.738Z,98747.44
2023-08-07T05:48:07.394Z,98789.25
2023-08-07T05:50:35.274Z,98786.69
2023-08-07T05:53:03.326Z,98779.88
2023-08-07T05:55:31.271Z,98785.75
2023-08-07T05:58:02.001Z,98792.56
2023-08-07T06:00:30.004Z,98796.81
2023-08-07T06:02:58.199Z,98808.59
2023-08-07T06:05:28.136Z,98778.31
2023-08-07T06:07:56.643Z,98810.03
2023-08-07T06:10:24.593Z,98816.84
2023-08-07T06:12:52.466Z,98801.59
2023-08-07T06:15:22.218Z,98807.38
2023-08-07T06:17:52.319Z,98810.72
2023-08-07T06:20:21.613Z,98783.84
2023-08-07T06:22:49.608Z,98808.09
2023-08-07T06:25:17.602Z,98805.59
2023-08-07T06:27:45.969Z,98825.81
2023-08-07T06:30:15.178Z,98806.47
2023-08-07T06:32:44.635Z,98807.31
2023-08-07T06:35:12.666Z,98817.47
2023-08-07T06:37:40.968Z,98810.78
2023-08-07T06:40:10.945Z,98821.81
2023-08-07T06:42:39.020Z,98816.03
2023-08-07T06:45:08.310Z,98818.56
2023-08-07T06:47:36.337Z,98814.47
2023-08-07T06:50:06.231Z,98811.94
2023-08-07T06:52:34.116Z,98819.59
2023-08-07T06:55:02.122Z,98824.72
2023-08-07T06:57:30.280Z,98823.06
2023-08-07T06:59:58.267Z,98823.06
2023-08-07T07:02:26.238Z,98835.66
2023-08-07T07:04:54.196Z,98852.47
2023-08-07T07:07:23.453Z,98844.09
2023-08-07T07:09:51.369Z,98839.13
2023-08-07T07:12:19.375Z,98846.72
2023-08-07T07:14:47.375Z,98842.50
2023-08-07T07:17:15.331Z,98853.50
2023-08-07T07:19:43.236Z,98858.56
2023-08-07T07:22:11.312Z,98851.06
2023-08-07T07:24:40.752Z,98863.72
2023-08-07T07:27:09.051Z,98863.72
2023-08-07T07:29:36.966Z,98878.91
2023-08-07T07:32:05.250Z,98871.28
2023-08-07T07:34:34.273Z,98897.31
2023-08-07T07:37:02.231Z,98881.38
2023-08-07T07:39:30.092Z,98894.00
2023-08-07T07:41:59.539Z,98880.59
2023-08-07T07:44:27.413Z,98877.28
2023-08-07T07:46:55.666Z,98889.84
2023-08-07T07:49:23.826Z,98902.50
2023-08-07T07:51:51.721Z,98912.63
2023-08-07T07:54:19.555Z,98900.81
2023-08-07T07:56:47.437Z,98904.97
2023-08-07T07:59:17.236Z,98912.44
2023-08-07T08:01:45.243Z,98919.97
2023-08-07T08:04:13.315Z,98917.47
2023-08-07T08:06:42.306Z,98920.84
2023-08-07T08:09:11.086Z,98920.84
2023-08-07T08:11:39.394Z,98925.88
2023-08-07T08:14:07.376Z,98933.47
2023-08-07T08:16:36.891Z,98936.03
2023-08-07T08:19:05.036Z,98941.13
2023-08-07T08:21:33.195Z,98932.75
2023-08-07T08:24:01.345Z,98936.94
2023-08-07T08:26:29.309Z,98945.28
2023-08-07T08:28:57.617Z,98944.41
2023-08-07T08:31:25.710Z,98940.16
2023-08-07T08:33:55.049Z,98941.03
2023-08-07T08:36:22.953Z,98939.28
2023-08-07T08:38:52.771Z,98945.13
2023-08-07T08:41:21.921Z,98941.00
2023-08-07T08:43:53.596Z,98955.44
2023-08-07T08:46:22.339Z,98953.81
2023-08-07T08:48:53.849Z,98959.78
2023-08-07T08:51:23.716Z,98967.31
2023-08-07T08:53:53.338Z,98965.59
2023-08-07T08:56:23.489Z,98963.91
2023-08-07T08:58:53.044Z,98969.84
2023-08-07T09:01:23.032Z,98963.13
2023-08-07T09:03:53.356Z,98966.50
2023-08-07T09:06:23.040Z,98964.81
2023-08-07T09:08:51.889Z,98972.34
2023-08-07T09:11:21.330Z,98968.94
2023-08-07T09:13:50.812Z,98964.72
2023-08-07T09:16:19.591Z,98962.19
2023-08-07T09:18:48.194Z,98961.31
2023-08-07T09:21:17.744Z,98962.06
2023-08-07T09:23:47.113Z,98956.16
2023-08-07T09:26:15.650Z,98970.44
2023-08-07T09:28:43.606Z,98967.94
2023-08-07T09:31:18.974Z,98974.56
2023-08-07T09:33:50.138Z,98966.03
2023-08-07T09:36:19.133Z,98974.47
2023-08-07T09:38:52.390Z,98980.44
2023-08-07T09:41:21.357Z,98972.16
2023-08-07T09:43:49.373Z,98985.72
2023-08-07T09:46:20.027Z,98979.09
2023-08-07T09:48:48.072Z,98986.69
2023-08-07T09:51:16.050Z,98975.84
2023-08-07T09:53:44.088Z,98985.84
2023-08-07T09:56:16.222Z,98992.56
2023-08-07T09:58:50.078Z,99001.78
2023-08-07T10:01:18.943Z,98996.75
2023-08-07T10:03:47.370Z,98997.53
2023-08-07T10:06:16.343Z,98998.44
2023-08-07T10:08:46.532Z,99007.69
2023-08-07T10:11:19.340Z,99001.78
2023-08-07T10:13:47.618Z,99011.03
2023-08-07T10:16:16.130Z,99013.50
2023-08-07T10:18:44.159Z,99017.72
2023-08-07T10:21:13.005Z,99016.13
2023-08-07T10:23:41.790Z,99014.44
2023-08-07T10:26:13.211Z,99031.31
2023-08-07T10:28:44.129Z,99018.75
2023-08-07T10:31:15.336Z,99033.06
2023-08-07T10:33:44.138Z,99027.13
2023-08-07T10:36:12.529Z,99025.47
2023-08-07T10:38:40.531Z,99025.50
2023-08-07T10:41:09.886Z,99022.97
2023-08-07T10:43:44.039Z,99025.44
2023-08-07T10:46:13.718Z,99022.91
2023-08-07T10:48:43.262Z,99034.69
2023-08-07T10:51:14.568Z,99023.75
2023-08-07T10:53:45.030Z,99025.41
2023-08-07T10:56:17.179Z,99016.19
2023-08-07T10:58:52.001Z,99030.41
2023-08-07T11:01:22.581Z,99021.13
2023-08-07T11:03:52.731Z,99015.25
2023-08-07T11:06:24.513Z,99025.34
2023-08-07T11:08:52.971Z,99037.97
2023-08-07T11:11:21.091Z,99032.09
2023-08-07T11:13:50.366Z,99039.63
2023-08-07T11:16:22.053Z,99027.00
2023-08-07T11:18:51.390Z,99041.31
2023-08-07T11:21:20.772Z,99042.16
2023-08-07T11:23:48.733Z,99043.84
2023-08-07T11:26:16.855Z,99044.75
2023-08-07T11:28:45.257Z,99046.47
2023-08-07T11:31:14.817Z,99059.06
2023-08-07T11:33:43.224Z,99059.03
2023-08-07T11:36:14.906Z,99048.97
2023-08-07T11:38:45.133Z,99056.47
2023-08-07T11:41:14.285Z,99057.31
2023-08-07T11:43:42.769Z,99060.66
2023-08-07T11:46:12.055Z,99069.06
2023-08-07T11:48:42.834Z,99069.91
2023-08-07T11:51:11.219Z,99067.44
2023-08-07T11:53:40.725Z,99069.13
2023-08-07T11:56:11.692Z,99106.09
2023-08-07T11:58:41.491Z,99069.97
2023-08-07T12:01:12.384Z,99085.88
2023-08-07T12:03:44.632Z,99092.59
2023-08-07T12:06:12.652Z,99087.56
2023-08-07T12:08:42.296Z,99091.75
2023-08-07T12:11:11.685Z,99097.63
2023-08-07T12:13:40.933Z,99090.91
2023-08-07T12:16:09.597Z,99099.38
2023-08-07T12:18:39.723Z,99105.25
2023-08-07T12:21:09.830Z,99106.09
2023-08-07T12:23:38.753Z,99108.63
2023-08-07T12:26:08.431Z,99101.91
2023-08-07T12:28:37.051Z,99104.34
2023-08-07T12:31:05.553Z,99116.13
2023-08-07T12:33:33.559Z,99112.75
2023-08-07T12:36:02.760Z,99121.13
2023-08-07T12:38:32.143Z,99119.47
2023-08-07T12:41:00.369Z,99132.94
2023-08-07T12:43:28.643Z,99131.31
2023-08-07T12:46:31.750Z,99133.00
2023-08-07T12:48:44.556Z,99133.84
2023-08-07T12:51:12.469Z,99142.25
2023-08-07T12:53:41.824Z,99127.94
2023-08-07T12:56:09.729Z,99139.72
2023-08-07T12:58:37.984Z,99131.31
2023-08-07T13:01:07.367Z,99138.03
2023-08-07T13:03:35.442Z,99130.47
2023-08-07T13:06:06.499Z,99133.00
2023-08-07T13:08:35.924Z,99138.03
2023-08-07T13:11:05.918Z,99138.03
2023-08-07T13:13:33.881Z,99131.31
2023-08-07T13:16:01.837Z,99141.41
2023-08-07T13:18:29.811Z,99139.75
2023-08-07T13:20:58.352Z,99155.69
2023-08-07T13:23:26.231Z,99149.81
2023-08-07T13:25:54.112Z,99169.97
2023-08-07T13:28:23.466Z,99151.47
2023-08-07T13:30:52.651Z,99150.66
2023-08-07T13:33:21.244Z,99149.81
2023-08-07T13:35:49.225Z,99154.03
2023-08-07T13:38:19.685Z,99143.13
2023-08-07T13:40:47.745Z,99156.53
2023-08-07T13:43:15.826Z,99153.19
2023-08-07T13:45:45.479Z,99164.91
2023-08-07T13:48:15.165Z,99169.13
2023-08-07T13:50:43.129Z,99161.59
2023-08-07T13:53:15.158Z,99176.69
2023-08-07T13:55:44.413Z,99173.34
2023-08-07T13:58:12.755Z,99186.78
2023-08-07T14:00:41.703Z,99186.78
2023-08-07T14:03:13.720Z,99199.34
2023-08-07T14:05:41.924Z,99176.69
2023-08-07T14:08:11.730Z,99196.84
2023-08-07T14:10:42.104Z,99201.88
2023-08-07T14:13:12.483Z,99181.72
2023-08-07T14:15:40.707Z,99201.88
2023-08-07T14:18:08.618Z,99186.78
2023-08-07T14:20:48.055Z,99209.47
2023-08-07T14:23:24.423Z,99204.41
2023-08-07T14:25:54.038Z,99196.88
2023-08-07T14:28:22.033Z,99196.00
2023-08-07T14:30:50.714Z,99203.56
2023-08-07T14:33:19.159Z,99204.41
2023-08-07T14:35:48.573Z,99207.81
2023-08-07T14:38:16.519Z,99202.75
2023-08-07T14:40:44.654Z,99191.81
2023-08-07T14:43:12.693Z,99196.84
2023-08-07T14:45:40.597Z,99213.69
2023-08-07T14:48:08.696Z,99206.94
2023-08-07T14:50:36.650Z,99205.25
2023-08-07T14:53:06.114Z,99216.19
2023-08-07T14:55:34.396Z,99219.53
2023-08-07T14:58:02.605Z,99217.00
2023-08-07T15:00:30.780Z,99221.19
2023-08-07T15:02:59.900Z,99227.13
2023-08-07T15:05:27.907Z,99218.72
2023-08-07T15:07:55.783Z,99229.63
2023-08-07T15:10:25.054Z,99229.63
2023-08-07T15:12:52.988Z,99234.66
2023-08-07T15:15:20.993Z,99228.78
2023-08-07T15:17:48.960Z,99224.59
2023-08-07T15:20:16.930Z,99227.94
2023-08-07T15:22:44.817Z,99223.72
2023-08-07T15:25:12.884Z,99222.03
2023-08-07T15:27:42.149Z,99228.78
2023-08-07T15:30:11.990Z,99227.09
2023-08-07T15:32:41.983Z,99233.81
2023-08-07T15:35:10.548Z,99238.06
2023-08-07T15:37:38.656Z,99234.66
2023-08-07T15:40:08.343Z,99230.50
2023-08-07T15:42:36.218Z,99237.19
2023-08-07T15:45:06.557Z,99247.28
2023-08-07T15:47:34.523Z,99254.00
2023-08-07T15:50:02.438Z,99254.84
2023-08-07T15:52:30.344Z,99247.28
2023-08-07T15:54:58.307Z,99245.56
2023-08-07T15:57:26.766Z,99252.31
2023-08-07T15:59:54.787Z,99249.81
2023-08-07T16:02:24.215Z,99237.19
2023-08-07T16:04:52.453Z,99254.84
2023-08-07T16:07:20.884Z,99255.69
2023-08-07T16:09:48.896Z,99254.00
2023-08-07T16:12:18.891Z,99254.84
2023-08-07T16:14:49.024Z,99254.84
2023-08-07T16:17:17.223Z,99260.72
2023-08-07T16:19:46.538Z,99260.72
2023-08-07T16:22:14.544Z,99243.06
2023-08-07T16:24:42.414Z,99264.88
2023-08-07T16:27:10.375Z,99270.78
2023-08-07T16:29:38.278Z,99258.16
2023-08-07T16:32:07.731Z,99264.84
2023-08-07T16:34:35.753Z,99256.44
2023-08-07T16:37:05.659Z,99258.13
2023-08-07T16:39:34.280Z,99264.00
2023-08-07T16:42:02.265Z,99257.28
2023-08-07T16:44:30.224Z,99267.38
2023-08-07T16:46:58.376Z,99239.69
2023-08-07T16:49:26.500Z,99261.53
2023-08-07T16:51:59.235Z,99261.56
2023-08-07T16:54:28.668Z,99259.88
2023-08-07T16:56:57.086Z,99255.66
2023-08-07T16:59:25.867Z,99256.50
2023-08-07T17:01:53.759Z,99264.09
2023-08-07T17:04:21.677Z,99264.91
2023-08-07T17:06:49.601Z,99267.44
2023-08-07T17:09:20.872Z,99271.66
2023-08-07T17:11:50.215Z,99278.38
2023-08-07T17:14:18.208Z,99276.69
2023-08-07T17:16:46.088Z,99275.00
2023-08-07T17:19:14.052Z,99280.88
2023-08-07T17:21:41.972Z,99287.63
2023-08-07T17:24:09.978Z,99285.09
2023-08-07T17:26:37.865Z,99280.03
2023-08-07T17:29:07.250Z,99276.69
2023-08-07T17:31:35.249Z,99272.47
2023-08-07T17:34:03.910Z,99285.09
2023-08-07T17:36:32.030Z,99275.88
2023-08-07T17:39:00.834Z,99291.81
2023-08-07T17:41:30.781Z,99286.78
2023-08-07T17:43:58.711Z,99284.25
2023-08-07T17:46:28.277Z,99286.78
2023-08-07T17:48:56.221Z,99277.53
2023-08-07T17:51:24.342Z,99276.69
2023-08-07T17:53:52.339Z,99285.94
2023-08-07T17:56:22.846Z,99282.56
2023-08-07T17:58:50.859Z,99297.69
2023-08-07T18:01:19.316Z,99291.81
2023-08-07T18:03:48.825Z,99306.94
2023-08-07T18:06:16.775Z,99290.16
2023-08-07T18:08:44.745Z,99313.66
2023-08-07T18:11:12.765Z,99311.13
2023-08-07T18:13:40.662Z,99301.91
2023-08-07T18:16:08.510Z,99307.78
2023-08-07T18:18:36.673Z,99326.28
2023-08-07T18:21:05.942Z,99319.53
2023-08-07T18:23:34.098Z,99327.97
2023-08-07T18:26:02.058Z,99329.66
2023-08-07T18:28:32.311Z,99327.97
2023-08-07T18:31:00.609Z,99330.50
2023-08-07T18:33:28.853Z,99338.88
2023-08-07T18:36:00.794Z,99334.69
2023-08-07T18:38:30.650Z,99334.69
2023-08-07T18:40:58.628Z,99342.25
2023-08-07T18:43:26.938Z,99353.16
2023-08-07T18:45:54.852Z,99356.50
2023-08-07T18:48:22.780Z,99356.50
2023-08-07T18:50:50.750Z,99364.09
2023-08-07T18:53:18.681Z,99359.91
2023-08-07T18:55:47.967Z,99367.44
2023-08-07T18:58:15.894Z,99369.97
2023-08-07T19:00:43.842Z,99380.03
2023-08-07T19:03:12.024Z,99378.34
2023-08-07T19:05:40.037Z,99382.56
2023-08-07T19:08:08.163Z,99377.50
2023-08-07T19:10:36.224Z,99376.69
2023-08-07T19:13:05.891Z,99385.06
2023-08-07T19:15:33.835Z,99390.13
2023-08-07T19:18:04.812Z,99408.63
2023-08-07T19:20:32.935Z,99412.81
2023-08-07T19:23:01.569Z,99414.50
2023-08-07T19:25:29.530Z,99417.00
2023-08-07T19:27:57.464Z,99421.22
2023-08-07T19:30:27.275Z,99436.34
2023-08-07T19:32:56.270Z,99423.72
2023-08-07T19:35:24.344Z,99432.13
2023-08-07T19:37:52.438Z,99435.50
2023-08-07T19:40:25.330Z,99431.31
2023-08-07T19:42:53.696Z,99432.13
2023-08-07T19:45:22.289Z,99442.22
2023-08-07T19:47:52.166Z,99433.81
2023-08-07T19:50:20.387Z,99434.69
2023-08-07T19:52:48.273Z,99438.88
2023-08-07T19:55:18.057Z,99453.16
2023-08-07T19:57:46.111Z,99448.13
2023-08-07T20:00:15.433Z,99454.00
2023-08-07T20:02:43.427Z,99454.00
2023-08-07T20:05:12.711Z,99459.06
2023-08-07T20:07:40.656Z,99454.00
2023-08-07T20:10:11.032Z,99470.81
2023-08-07T20:12:39.335Z,99462.41
2023-08-07T20:15:08.213Z,99463.19
2023-08-07T20:17:36.199Z,99472.47
2023-08-07T20:20:04.312Z,99464.88
2023-08-07T20:22:33.573Z,99479.97
2023-08-07T20:25:01.438Z,99478.28
2023-08-07T20:27:29.343Z,99472.41
2023-08-07T20:29:57.241Z,99479.13
2023-08-07T20:32:25.336Z,99490.06
2023-08-07T20:34:53.298Z,99485.84
2023-08-07T20:37:21.168Z,99485.00
2023-08-07T20:39:50.401Z,99494.22
2023-08-07T20:42:18.424Z,99499.28
2023-08-07T20:44:46.374Z,99501.78
2023-08-07T20:47:14.695Z,99502.63
2023-08-07T20:49:42.620Z,99504.31
2023-08-07T20:52:10.555Z,99508.50
2023-08-07T20:54:38.530Z,99522.78
2023-08-07T20:57:08.292Z,99518.56
2023-08-07T20:59:36.181Z,99511.03
2023-08-07T21:02:04.421Z,99519.41
2023-08-07T21:04:32.443Z,99514.38
2023-08-07T21:07:00.405Z,99516.91
2023-08-07T21:09:28.373Z,99516.06
2023-08-07T21:11:56.560Z,99521.09
2023-08-07T21:14:26.202Z,99516.03
2023-08-07T21:16:54.218Z,99526.09
2023-08-07T21:19:22.332Z,99531.16
2023-08-07T21:21:50.228Z,99527.75
2023-08-07T21:24:18.238Z,99526.91
2023-08-07T21:26:46.186Z,99525.25
2023-08-07T21:29:14.099Z,99529.44
2023-08-07T21:31:43.333Z,99521.03
2023-08-07T21:34:11.300Z,99527.78
2023-08-07T21:36:39.139Z,99523.56
2023-08-07T21:39:07.544Z,99532.81
2023-08-07T21:41:35.396Z,99535.34
2023-08-07T21:44:03.262Z,99537.84
2023-08-07T21:46:31.269Z,99534.50
2023-08-07T21:49:00.808Z,99532.81
2023-08-07T21:51:29.591Z,99533.66
2023-08-07T21:53:57.549Z,99534.47
2023-08-07T21:56:25.762Z,99537.00
2023-08-07T21:58:53.681Z,99532.78
2023-08-07T22:01:22.524Z,99536.97
2023-08-07T22:03:50.700Z,99544.50
2023-08-07T22:06:19.984Z,99545.34
2023-08-07T22:08:48.040Z,99553.75
2023-08-07T22:11:16.082Z,99543.63
2023-08-07T22:13:45.985Z,99562.13
2023-08-07T22:16:13.934Z,99558.75
2023-08-07T22:18:42.044Z,99560.44
2023-08-07T22:21:10.023Z,99556.22
2023-08-07T22:23:39.271Z,99556.25
2023-08-07T22:26:07.249Z,99563.78
2023-08-07T22:28:35.161Z,99553.69
2023-08-07T22:31:06.725Z,99560.38
2023-08-07T22:33:36.387Z,99559.50
2023-08-07T22:36:04.862Z,99542.66
2023-08-07T22:38:32.962Z,99557.81
2023-08-07T22:41:02.228Z,99558.66
2023-08-07T22:43:30.163Z,99551.94
2023-08-07T22:45:58.134Z,99556.13
2023-08-07T22:48:26.075Z,99551.06
2023-08-07T22:50:54.376Z,99551.94
2023-08-07T22:53:22.262Z,99547.72
2023-08-07T22:55:50.196Z,99560.34
2023-08-07T22:58:19.384Z,99559.50
2023-08-07T23:00:47.279Z,99565.41
2023-08-07T23:03:15.325Z,99560.34
2023-08-07T23:05:43.306Z,99572.09
2023-08-07T23:08:11.476Z,99570.44
2023-08-07T23:10:39.472Z,99575.50
2023-08-07T23:13:07.320Z,99568.78
2023-08-07T23:15:38.416Z,99569.63
2023-08-07T23:18:06.969Z,99591.47
2023-08-07T23:20:34.837Z,99575.53
2023-08-07T23:23:02.796Z,99581.44
2023-08-07T23:25:30.697Z,99578.00
2023-08-07T23:27:58.573Z,99586.41
2023-08-07T23:30:26.570Z,99589.75
2023-08-07T23:32:55.889Z,99583.03
2023-08-07T23:35:23.760Z,99574.63
2023-08-07T23:37:51.743Z,99569.56
2023-08-07T23:40:19.801Z,99572.91
2023-08-07T23:42:48.184Z,99579.59
2023-08-07T23:45:16.084Z,99575.34
2023-08-07T23:47:44.089Z,99571.13
2023-08-07T23:50:13.375Z,99561.06
2023-08-07T23:52:44.740Z,99570.28
2023-08-07T23:55:12.966Z,99576.13
2023-08-07T23:57:40.896Z,99568.59
